sensor_id;sensor_type;location;lat;lon;timestamp;temperature;humidity
7738;DHT22;29398;45.328;5.558;2023-04-25T00:00:26;14.50;84.50
7738;DHT22;29398;45.328;5.558;2023-04-25T00:01:28;14.50;84.70
7738;DHT22;29398;45.328;5.558;2023-04-25T00:02:29;14.40;85.30
7738;DHT22;29398;45.328;5.558;2023-04-25T00:03:32;14.40;83.50
7738;DHT22;29398;45.328;5.558;2023-04-25T00:04:33;14.30;85.40
7738;DHT22;29398;45.328;5.558;2023-04-25T00:05:35;14.30;85.20
7738;DHT22;29398;45.328;5.558;2023-04-25T00:07:40;14.30;84.30
7738;DHT22;29398;45.328;5.558;2023-04-25T00:08:42;14.30;85.30
7738;DHT22;29398;45.328;5.558;2023-04-25T00:09:45;14.40;85.70
7738;DHT22;29398;45.328;5.558;2023-04-25T00:10:46;14.40;85.80
7738;DHT22;29398;45.328;5.558;2023-04-25T00:11:49;14.40;85.70
7738;DHT22;29398;45.328;5.558;2023-04-25T00:12:51;14.40;85.40
7738;DHT22;29398;45.328;5.558;2023-04-25T00:13:54;14.50;86.30
7738;DHT22;29398;45.328;5.558;2023-04-25T00:14:55;14.50;85.30
7738;DHT22;29398;45.328;5.558;2023-04-25T00:15:58;14.40;85.10
7738;DHT22;29398;45.328;5.558;2023-04-25T00:17:00;14.50;86.00
7738;DHT22;29398;45.328;5.558;2023-04-25T00:18:03;14.40;86.20
7738;DHT22;29398;45.328;5.558;2023-04-25T00:19:04;14.40;85.80
7738;DHT22;29398;45.328;5.558;2023-04-25T00:20:08;14.40;86.10
7738;DHT22;29398;45.328;5.558;2023-04-25T00:21:10;14.40;86.50
7738;DHT22;29398;45.328;5.558;2023-04-25T00:22:12;14.40;86.10
7738;DHT22;29398;45.328;5.558;2023-04-25T00:23:14;14.40;86.10
7738;DHT22;29398;45.328;5.558;2023-04-25T00:24:18;14.40;86.10
7738;DHT22;29398;45.328;5.558;2023-04-25T00:25:19;14.40;85.90
7738;DHT22;29398;45.328;5.558;2023-04-25T00:26:21;14.40;86.10
7738;DHT22;29398;45.328;5.558;2023-04-25T00:27:22;14.40;86.10
7738;DHT22;29398;45.328;5.558;2023-04-25T00:28:26;14.40;86.00
7738;DHT22;29398;45.328;5.558;2023-04-25T00:29:27;14.40;86.10
7738;DHT22;29398;45.328;5.558;2023-04-25T00:30:29;14.40;86.50
7738;DHT22;29398;45.328;5.558;2023-04-25T00:31:30;14.50;86.30
7738;DHT22;29398;45.328;5.558;2023-04-25T00:32:32;14.40;86.00
7738;DHT22;29398;45.328;5.558;2023-04-25T00:33:33;14.40;86.00
7738;DHT22;29398;45.328;5.558;2023-04-25T00:34:35;14.50;88.00
7738;DHT22;29398;45.328;5.558;2023-04-25T00:35:37;14.30;85.60
7738;DHT22;29398;45.328;5.558;2023-04-25T00:36:40;14.30;86.00
7738;DHT22;29398;45.328;5.558;2023-04-25T00:37:41;14.30;86.70
7738;DHT22;29398;45.328;5.558;2023-04-25T00:38:43;14.40;87.60
7738;DHT22;29398;45.328;5.558;2023-04-25T00:39:44;14.40;88.80
7738;DHT22;29398;45.328;5.558;2023-04-25T00:40:46;14.40;86.50
7738;DHT22;29398;45.328;5.558;2023-04-25T00:41:48;14.30;85.90
7738;DHT22;29398;45.328;5.558;2023-04-25T00:42:54;14.30;85.90
7738;DHT22;29398;45.328;5.558;2023-04-25T00:43:56;14.30;87.30
7738;DHT22;29398;45.328;5.558;2023-04-25T00:44:59;14.40;89.40
7738;DHT22;29398;45.328;5.558;2023-04-25T00:46:01;14.40;90.40
7738;DHT22;29398;45.328;5.558;2023-04-25T00:47:04;14.40;90.30
7738;DHT22;29398;45.328;5.558;2023-04-25T00:48:06;14.30;88.10
7738;DHT22;29398;45.328;5.558;2023-04-25T00:49:08;14.30;87.30
7738;DHT22;29398;45.328;5.558;2023-04-25T00:50:09;15.50;86.80
7738;DHT22;29398;45.328;5.558;2023-04-25T00:51:15;14.20;88.10
7738;DHT22;29398;45.328;5.558;2023-04-25T00:52:17;14.10;85.90
7738;DHT22;29398;45.328;5.558;2023-04-25T00:53:19;14.10;86.10
7738;DHT22;29398;45.328;5.558;2023-04-25T00:54:21;14.10;86.80
7738;DHT22;29398;45.328;5.558;2023-04-25T00:55:23;14.20;86.10
7738;DHT22;29398;45.328;5.558;2023-04-25T00:56:25;14.10;86.50
7738;DHT22;29398;45.328;5.558;2023-04-25T00:57:27;14.10;87.90
7738;DHT22;29398;45.328;5.558;2023-04-25T00:58:29;14.00;88.30
7738;DHT22;29398;45.328;5.558;2023-04-25T00:59:32;14.00;87.90
7738;DHT22;29398;45.328;5.558;2023-04-25T01:00:34;15.60;88.70
7738;DHT22;29398;45.328;5.558;2023-04-25T01:01:35;14.00;87.80
7738;DHT22;29398;45.328;5.558;2023-04-25T01:02:38;14.10;89.70
7738;DHT22;29398;45.328;5.558;2023-04-25T01:03:40;13.90;86.90
7738;DHT22;29398;45.328;5.558;2023-04-25T01:04:43;13.90;87.30
7738;DHT22;29398;45.328;5.558;2023-04-25T01:05:46;14.00;90.60
7738;DHT22;29398;45.328;5.558;2023-04-25T01:06:48;14.10;92.40
7738;DHT22;29398;45.328;5.558;2023-04-25T01:07:50;14.10;90.60
7738;DHT22;29398;45.328;5.558;2023-04-25T01:08:53;14.00;88.10
7738;DHT22;29398;45.328;5.558;2023-04-25T01:09:54;13.90;87.60
7738;DHT22;29398;45.328;5.558;2023-04-25T01:10:56;14.00;87.60
7738;DHT22;29398;45.328;5.558;2023-04-25T01:11:58;13.90;87.50
7738;DHT22;29398;45.328;5.558;2023-04-25T01:13:00;13.90;87.80
7738;DHT22;29398;45.328;5.558;2023-04-25T01:14:02;14.00;87.90
7738;DHT22;29398;45.328;5.558;2023-04-25T01:15:06;13.90;87.90
7738;DHT22;29398;45.328;5.558;2023-04-25T01:16:08;13.90;87.70
7738;DHT22;29398;45.328;5.558;2023-04-25T01:17:10;13.90;88.00
7738;DHT22;29398;45.328;5.558;2023-04-25T01:18:12;13.90;88.30
7738;DHT22;29398;45.328;5.558;2023-04-25T01:19:16;13.90;88.00
7738;DHT22;29398;45.328;5.558;2023-04-25T01:20:22;13.90;87.80
7738;DHT22;29398;45.328;5.558;2023-04-25T01:21:25;13.80;88.00
7738;DHT22;29398;45.328;5.558;2023-04-25T01:22:28;13.80;89.10
7738;DHT22;29398;45.328;5.558;2023-04-25T01:23:31;13.70;89.10
7738;DHT22;29398;45.328;5.558;2023-04-25T01:24:34;13.70;88.90
7738;DHT22;29398;45.328;5.558;2023-04-25T01:25:37;13.70;89.10
7738;DHT22;29398;45.328;5.558;2023-04-25T01:26:38;13.60;90.00
7738;DHT22;29398;45.328;5.558;2023-04-25T01:27:41;13.60;89.20
7738;DHT22;29398;45.328;5.558;2023-04-25T01:28:46;13.60;89.20
7738;DHT22;29398;45.328;5.558;2023-04-25T01:29:49;13.60;88.80
7738;DHT22;29398;45.328;5.558;2023-04-25T01:30:51;13.60;88.80
7738;DHT22;29398;45.328;5.558;2023-04-25T01:31:54;13.60;88.40
7738;DHT22;29398;45.328;5.558;2023-04-25T01:32:56;13.50;88.50
7738;DHT22;29398;45.328;5.558;2023-04-25T01:33:58;13.60;88.60
7738;DHT22;29398;45.328;5.558;2023-04-25T01:34:59;13.50;90.00
7738;DHT22;29398;45.328;5.558;2023-04-25T01:36:01;13.40;89.50
7738;DHT22;29398;45.328;5.558;2023-04-25T01:37:04;13.30;89.40
7738;DHT22;29398;45.328;5.558;2023-04-25T01:38:06;13.30;89.40
7738;DHT22;29398;45.328;5.558;2023-04-25T01:39:07;13.30;89.80
7738;DHT22;29398;45.328;5.558;2023-04-25T01:40:11;13.40;89.80
7738;DHT22;29398;45.328;5.558;2023-04-25T01:41:12;13.40;89.80
7738;DHT22;29398;45.328;5.558;2023-04-25T01:42:18;13.30;89.20
7738;DHT22;29398;45.328;5.558;2023-04-25T01:43:19;13.40;89.80
7738;DHT22;29398;45.328;5.558;2023-04-25T01:44:22;13.40;90.10
7738;DHT22;29398;45.328;5.558;2023-04-25T01:45:23;13.30;90.10
7738;DHT22;29398;45.328;5.558;2023-04-25T01:46:26;13.10;90.20
7738;DHT22;29398;45.328;5.558;2023-04-25T01:47:27;13.00;90.30
7738;DHT22;29398;45.328;5.558;2023-04-25T01:48:29;13.00;90.20
7738;DHT22;29398;45.328;5.558;2023-04-25T01:49:30;13.10;90.10
7738;DHT22;29398;45.328;5.558;2023-04-25T01:50:33;13.10;90.20
7738;DHT22;29398;45.328;5.558;2023-04-25T01:51:34;13.00;90.60
7738;DHT22;29398;45.328;5.558;2023-04-25T01:52:38;13.00;90.40
7738;DHT22;29398;45.328;5.558;2023-04-25T01:53:39;13.00;90.30
7738;DHT22;29398;45.328;5.558;2023-04-25T01:54:42;13.10;90.30
7738;DHT22;29398;45.328;5.558;2023-04-25T01:55:45;13.10;90.20
7738;DHT22;29398;45.328;5.558;2023-04-25T01:56:50;13.20;89.90
7738;DHT22;29398;45.328;5.558;2023-04-25T01:57:52;13.20;89.80
7738;DHT22;29398;45.328;5.558;2023-04-25T01:59:00;13.50;89.70
7738;DHT22;29398;45.328;5.558;2023-04-25T02:00:24;13.20;89.80
7738;DHT22;29398;45.328;5.558;2023-04-25T02:01:26;13.20;89.80
7738;DHT22;29398;45.328;5.558;2023-04-25T02:02:45;13.20;89.20
7738;DHT22;29398;45.328;5.558;2023-04-25T02:04:04;13.20;89.30
7738;DHT22;29398;45.328;5.558;2023-04-25T02:05:09;13.20;89.10
7738;DHT22;29398;45.328;5.558;2023-04-25T02:06:14;13.20;89.20
7738;DHT22;29398;45.328;5.558;2023-04-25T02:07:18;13.20;88.70
7738;DHT22;29398;45.328;5.558;2023-04-25T02:08:29;13.20;89.20
7738;DHT22;29398;45.328;5.558;2023-04-25T02:09:31;13.20;89.30
7738;DHT22;29398;45.328;5.558;2023-04-25T02:10:34;13.30;89.30
7738;DHT22;29398;45.328;5.558;2023-04-25T02:11:44;13.30;89.30
7738;DHT22;29398;45.328;5.558;2023-04-25T02:13:12;13.30;89.00
7738;DHT22;29398;45.328;5.558;2023-04-25T02:14:28;13.30;88.10
7738;DHT22;29398;45.328;5.558;2023-04-25T02:15:37;13.30;88.20
7738;DHT22;29398;45.328;5.558;2023-04-25T02:16:50;13.40;88.40
7738;DHT22;29398;45.328;5.558;2023-04-25T02:17:52;13.40;88.50
7738;DHT22;29398;45.328;5.558;2023-04-25T02:18:54;13.40;88.40
7738;DHT22;29398;45.328;5.558;2023-04-25T02:20:58;13.40;87.90
7738;DHT22;29398;45.328;5.558;2023-04-25T02:23:02;13.40;87.30
7738;DHT22;29398;45.328;5.558;2023-04-25T02:24:06;13.40;87.50
7738;DHT22;29398;45.328;5.558;2023-04-25T02:25:09;13.40;87.60
7738;DHT22;29398;45.328;5.558;2023-04-25T02:26:11;13.40;86.90
7738;DHT22;29398;45.328;5.558;2023-04-25T02:27:14;13.30;86.20
7738;DHT22;29398;45.328;5.558;2023-04-25T02:28:15;13.30;86.70
7738;DHT22;29398;45.328;5.558;2023-04-25T02:29:17;13.30;86.60
7738;DHT22;29398;45.328;5.558;2023-04-25T02:30:19;13.30;86.70
7738;DHT22;29398;45.328;5.558;2023-04-25T02:31:24;13.30;85.50
7738;DHT22;29398;45.328;5.558;2023-04-25T02:32:26;13.30;85.80
7738;DHT22;29398;45.328;5.558;2023-04-25T02:33:28;13.30;87.00
7738;DHT22;29398;45.328;5.558;2023-04-25T02:34:30;13.30;87.70
7738;DHT22;29398;45.328;5.558;2023-04-25T02:35:35;13.30;87.60
7738;DHT22;29398;45.328;5.558;2023-04-25T02:36:36;13.20;86.90
7738;DHT22;29398;45.328;5.558;2023-04-25T02:37:39;13.20;86.00
7738;DHT22;29398;45.328;5.558;2023-04-25T02:38:41;13.20;87.20
7738;DHT22;29398;45.328;5.558;2023-04-25T02:39:44;13.30;88.90
7738;DHT22;29398;45.328;5.558;2023-04-25T02:40:46;13.30;88.40
7738;DHT22;29398;45.328;5.558;2023-04-25T02:41:48;13.30;88.00
7738;DHT22;29398;45.328;5.558;2023-04-25T02:42:49;13.30;88.10
7738;DHT22;29398;45.328;5.558;2023-04-25T02:43:53;13.30;88.40
7738;DHT22;29398;45.328;5.558;2023-04-25T02:44:54;13.20;88.70
7738;DHT22;29398;45.328;5.558;2023-04-25T02:45:56;13.20;88.10
7738;DHT22;29398;45.328;5.558;2023-04-25T02:46:57;13.20;87.90
7738;DHT22;29398;45.328;5.558;2023-04-25T02:47:59;13.30;88.00
7738;DHT22;29398;45.328;5.558;2023-04-25T02:49:01;13.30;88.20
7738;DHT22;29398;45.328;5.558;2023-04-25T02:50:04;13.30;88.20
7738;DHT22;29398;45.328;5.558;2023-04-25T02:51:06;13.30;88.30
7738;DHT22;29398;45.328;5.558;2023-04-25T02:52:08;13.30;88.10
7738;DHT22;29398;45.328;5.558;2023-04-25T02:53:10;13.30;88.40
7738;DHT22;29398;45.328;5.558;2023-04-25T02:54:19;13.30;88.00
7738;DHT22;29398;45.328;5.558;2023-04-25T02:55:23;13.30;87.50
7738;DHT22;29398;45.328;5.558;2023-04-25T02:56:26;13.30;87.60
7738;DHT22;29398;45.328;5.558;2023-04-25T02:57:28;13.40;87.50
7738;DHT22;29398;45.328;5.558;2023-04-25T02:58:30;13.40;87.50
7738;DHT22;29398;45.328;5.558;2023-04-25T02:59:32;13.40;87.30
7738;DHT22;29398;45.328;5.558;2023-04-25T03:00:34;13.40;87.50
7738;DHT22;29398;45.328;5.558;2023-04-25T03:01:36;13.40;87.60
7738;DHT22;29398;45.328;5.558;2023-04-25T03:02:37;13.40;87.60
7738;DHT22;29398;45.328;5.558;2023-04-25T03:03:39;13.40;87.60
7738;DHT22;29398;45.328;5.558;2023-04-25T03:04:41;13.40;87.80
7738;DHT22;29398;45.328;5.558;2023-04-25T03:05:43;13.40;87.70
7738;DHT22;29398;45.328;5.558;2023-04-25T03:06:44;13.40;87.40
7738;DHT22;29398;45.328;5.558;2023-04-25T03:07:47;13.40;87.40
7738;DHT22;29398;45.328;5.558;2023-04-25T03:08:48;13.40;87.90
7738;DHT22;29398;45.328;5.558;2023-04-25T03:09:50;13.40;87.00
7738;DHT22;29398;45.328;5.558;2023-04-25T03:10:54;13.40;87.50
7738;DHT22;29398;45.328;5.558;2023-04-25T03:11:56;13.40;87.40
7738;DHT22;29398;45.328;5.558;2023-04-25T03:12:58;13.40;87.70
7738;DHT22;29398;45.328;5.558;2023-04-25T03:13:59;13.40;87.00
7738;DHT22;29398;45.328;5.558;2023-04-25T03:15:02;13.30;87.00
7738;DHT22;29398;45.328;5.558;2023-04-25T03:16:04;13.30;86.80
7738;DHT22;29398;45.328;5.558;2023-04-25T03:17:06;13.30;85.80
7738;DHT22;29398;45.328;5.558;2023-04-25T03:18:09;13.30;86.10
7738;DHT22;29398;45.328;5.558;2023-04-25T03:19:14;13.30;86.00
7738;DHT22;29398;45.328;5.558;2023-04-25T03:20:16;13.30;86.50
7738;DHT22;29398;45.328;5.558;2023-04-25T03:21:18;13.30;86.50
7738;DHT22;29398;45.328;5.558;2023-04-25T03:22:19;13.30;83.90
7738;DHT22;29398;45.328;5.558;2023-04-25T03:23:21;13.30;84.50
7738;DHT22;29398;45.328;5.558;2023-04-25T03:24:23;13.30;85.60
7738;DHT22;29398;45.328;5.558;2023-04-25T03:26:28;13.20;84.30
7738;DHT22;29398;45.328;5.558;2023-04-25T03:27:30;13.20;85.30
7738;DHT22;29398;45.328;5.558;2023-04-25T03:28:31;13.30;85.30
7738;DHT22;29398;45.328;5.558;2023-04-25T03:29:33;13.20;85.10
7738;DHT22;29398;45.328;5.558;2023-04-25T03:30:38;13.20;84.30
7738;DHT22;29398;45.328;5.558;2023-04-25T03:31:40;13.20;84.40
7738;DHT22;29398;45.328;5.558;2023-04-25T03:32:41;13.20;84.90
7738;DHT22;29398;45.328;5.558;2023-04-25T03:33:43;13.30;85.30
7738;DHT22;29398;45.328;5.558;2023-04-25T03:34:45;13.30;85.40
7738;DHT22;29398;45.328;5.558;2023-04-25T03:35:47;13.30;86.10
7738;DHT22;29398;45.328;5.558;2023-04-25T03:36:49;13.30;86.10
7738;DHT22;29398;45.328;5.558;2023-04-25T03:37:51;13.30;85.80
7738;DHT22;29398;45.328;5.558;2023-04-25T03:38:59;13.30;85.90
7738;DHT22;29398;45.328;5.558;2023-04-25T03:40:03;13.40;85.90
7738;DHT22;29398;45.328;5.558;2023-04-25T03:41:24;13.40;86.10
7738;DHT22;29398;45.328;5.558;2023-04-25T03:42:31;13.40;86.50
7738;DHT22;29398;45.328;5.558;2023-04-25T03:43:33;13.30;87.50
7738;DHT22;29398;45.328;5.558;2023-04-25T03:44:39;13.20;85.20
7738;DHT22;29398;45.328;5.558;2023-04-25T03:45:41;13.20;86.20
7738;DHT22;29398;45.328;5.558;2023-04-25T03:46:43;13.20;86.40
7738;DHT22;29398;45.328;5.558;2023-04-25T03:47:44;13.20;86.70
7738;DHT22;29398;45.328;5.558;2023-04-25T03:48:46;13.20;86.20
7738;DHT22;29398;45.328;5.558;2023-04-25T03:49:55;13.20;86.20
7738;DHT22;29398;45.328;5.558;2023-04-25T03:50:57;13.30;86.10
7738;DHT22;29398;45.328;5.558;2023-04-25T03:52:00;13.30;86.10
7738;DHT22;29398;45.328;5.558;2023-04-25T03:53:02;13.20;83.40
7738;DHT22;29398;45.328;5.558;2023-04-25T03:54:13;13.20;84.10
7738;DHT22;29398;45.328;5.558;2023-04-25T03:55:34;13.20;84.80
7738;DHT22;29398;45.328;5.558;2023-04-25T03:56:37;13.30;85.10
7738;DHT22;29398;45.328;5.558;2023-04-25T03:57:51;13.30;85.50
7738;DHT22;29398;45.328;5.558;2023-04-25T03:58:53;13.30;84.90
7738;DHT22;29398;45.328;5.558;2023-04-25T03:59:56;13.30;86.00
7738;DHT22;29398;45.328;5.558;2023-04-25T04:00:58;12.90;85.60
7738;DHT22;29398;45.328;5.558;2023-04-25T04:02:00;13.30;85.60
7738;DHT22;29398;45.328;5.558;2023-04-25T04:03:02;13.20;85.10
7738;DHT22;29398;45.328;5.558;2023-04-25T04:04:04;13.20;84.50
7738;DHT22;29398;45.328;5.558;2023-04-25T04:05:06;13.20;85.10
7738;DHT22;29398;45.328;5.558;2023-04-25T04:06:11;13.20;85.00
7738;DHT22;29398;45.328;5.558;2023-04-25T04:07:17;13.30;85.40
7738;DHT22;29398;45.328;5.558;2023-04-25T04:08:21;13.30;85.50
7738;DHT22;29398;45.328;5.558;2023-04-25T04:09:23;13.30;85.60
7738;DHT22;29398;45.328;5.558;2023-04-25T04:10:24;13.30;85.80
7738;DHT22;29398;45.328;5.558;2023-04-25T04:11:27;13.30;85.60
7738;DHT22;29398;45.328;5.558;2023-04-25T04:12:28;13.20;84.30
7738;DHT22;29398;45.328;5.558;2023-04-25T04:13:32;13.20;84.70
7738;DHT22;29398;45.328;5.558;2023-04-25T04:14:34;13.20;85.50
7738;DHT22;29398;45.328;5.558;2023-04-25T04:15:36;13.10;85.30
7738;DHT22;29398;45.328;5.558;2023-04-25T04:16:38;13.10;85.00
7738;DHT22;29398;45.328;5.558;2023-04-25T04:17:39;13.10;85.00
7738;DHT22;29398;45.328;5.558;2023-04-25T04:18:42;13.10;85.50
7738;DHT22;29398;45.328;5.558;2023-04-25T04:19:43;13.10;85.10
7738;DHT22;29398;45.328;5.558;2023-04-25T04:20:53;13.20;85.00
7738;DHT22;29398;45.328;5.558;2023-04-25T04:21:54;14.20;84.80
7738;DHT22;29398;45.328;5.558;2023-04-25T04:22:56;13.10;84.80
7738;DHT22;29398;45.328;5.558;2023-04-25T04:23:58;13.20;85.10
7738;DHT22;29398;45.328;5.558;2023-04-25T04:25:05;13.20;85.40
7738;DHT22;29398;45.328;5.558;2023-04-25T04:26:26;13.20;85.50
7738;DHT22;29398;45.328;5.558;2023-04-25T04:27:41;13.20;85.70
7738;DHT22;29398;45.328;5.558;2023-04-25T04:28:59;13.20;84.90
7738;DHT22;29398;45.328;5.558;2023-04-25T04:30:12;13.30;85.40
7738;DHT22;29398;45.328;5.558;2023-04-25T04:31:27;13.30;84.90
7738;DHT22;29398;45.328;5.558;2023-04-25T04:32:29;13.30;84.80
7738;DHT22;29398;45.328;5.558;2023-04-25T04:33:31;13.30;84.80
7738;DHT22;29398;45.328;5.558;2023-04-25T04:34:37;13.30;85.00
7738;DHT22;29398;45.328;5.558;2023-04-25T04:35:38;13.30;85.30
7738;DHT22;29398;45.328;5.558;2023-04-25T04:36:41;13.20;84.70
7738;DHT22;29398;45.328;5.558;2023-04-25T04:37:42;13.20;85.10
7738;DHT22;29398;45.328;5.558;2023-04-25T04:38:47;13.30;84.70
7738;DHT22;29398;45.328;5.558;2023-04-25T04:39:56;13.30;84.90
7738;DHT22;29398;45.328;5.558;2023-04-25T04:41:19;13.20;85.20
7738;DHT22;29398;45.328;5.558;2023-04-25T04:42:44;13.20;83.80
7738;DHT22;29398;45.328;5.558;2023-04-25T04:44:01;13.20;85.70
7738;DHT22;29398;45.328;5.558;2023-04-25T04:45:25;13.10;86.40
7738;DHT22;29398;45.328;5.558;2023-04-25T04:46:55;13.10;86.50
7738;DHT22;29398;45.328;5.558;2023-04-25T04:48:05;13.20;87.30
7738;DHT22;29398;45.328;5.558;2023-04-25T04:49:35;13.20;86.70
7738;DHT22;29398;45.328;5.558;2023-04-25T04:51:06;13.10;85.10
7738;DHT22;29398;45.328;5.558;2023-04-25T04:52:27;13.10;86.60
7738;DHT22;29398;45.328;5.558;2023-04-25T04:53:47;13.10;87.00
7738;DHT22;29398;45.328;5.558;2023-04-25T04:55:18;13.20;87.00
7738;DHT22;29398;45.328;5.558;2023-04-25T04:56:40;13.20;87.40
7738;DHT22;29398;45.328;5.558;2023-04-25T04:58:18;13.20;87.80
7738;DHT22;29398;45.328;5.558;2023-04-25T04:59:36;13.10;86.30
7738;DHT22;29398;45.328;5.558;2023-04-25T05:01:16;13.30;85.60
7738;DHT22;29398;45.328;5.558;2023-04-25T05:02:37;13.20;87.10
7738;DHT22;29398;45.328;5.558;2023-04-25T05:04:02;13.20;87.60
7738;DHT22;29398;45.328;5.558;2023-04-25T05:05:21;13.30;87.30
7738;DHT22;29398;45.328;5.558;2023-04-25T05:06:53;13.30;87.10
7738;DHT22;29398;45.328;5.558;2023-04-25T05:08:19;13.30;86.80
7738;DHT22;29398;45.328;5.558;2023-04-25T05:09:29;13.30;86.70
7738;DHT22;29398;45.328;5.558;2023-04-25T05:10:39;13.30;86.60
7738;DHT22;29398;45.328;5.558;2023-04-25T05:11:54;13.30;86.60
7738;DHT22;29398;45.328;5.558;2023-04-25T05:13:33;13.40;87.10
7738;DHT22;29398;45.328;5.558;2023-04-25T05:14:57;13.40;86.90
7738;DHT22;29398;45.328;5.558;2023-04-25T05:16:25;13.40;86.50
7738;DHT22;29398;45.328;5.558;2023-04-25T05:17:50;13.50;86.40
7738;DHT22;29398;45.328;5.558;2023-04-25T05:19:06;13.40;85.50
7738;DHT22;29398;45.328;5.558;2023-04-25T05:20:18;13.50;86.10
7738;DHT22;29398;45.328;5.558;2023-04-25T05:21:35;13.50;86.30
7738;DHT22;29398;45.328;5.558;2023-04-25T05:22:47;13.50;85.80
7738;DHT22;29398;45.328;5.558;2023-04-25T05:23:54;13.50;85.20
7738;DHT22;29398;45.328;5.558;2023-04-25T05:25:16;13.50;85.30
7738;DHT22;29398;45.328;5.558;2023-04-25T05:26:37;13.50;85.30
7738;DHT22;29398;45.328;5.558;2023-04-25T05:28:18;13.50;84.40
7738;DHT22;29398;45.328;5.558;2023-04-25T05:29:44;13.40;85.20
7738;DHT22;29398;45.328;5.558;2023-04-25T05:30:55;13.30;86.60
7738;DHT22;29398;45.328;5.558;2023-04-25T05:32:04;13.30;86.10
7738;DHT22;29398;45.328;5.558;2023-04-25T05:33:06;13.30;86.60
7738;DHT22;29398;45.328;5.558;2023-04-25T05:34:08;13.30;86.60
7738;DHT22;29398;45.328;5.558;2023-04-25T05:35:29;13.20;85.90
7738;DHT22;29398;45.328;5.558;2023-04-25T05:36:32;13.20;87.30
7738;DHT22;29398;45.328;5.558;2023-04-25T05:38:48;13.10;85.90
7738;DHT22;29398;45.328;5.558;2023-04-25T05:39:55;13.20;86.60
7738;DHT22;29398;45.328;5.558;2023-04-25T05:41:20;13.20;86.70
7738;DHT22;29398;45.328;5.558;2023-04-25T05:42:29;13.20;87.20
7738;DHT22;29398;45.328;5.558;2023-04-25T05:43:50;13.30;87.30
7738;DHT22;29398;45.328;5.558;2023-04-25T05:45:20;13.20;86.70
7738;DHT22;29398;45.328;5.558;2023-04-25T05:46:45;13.30;87.50
7738;DHT22;29398;45.328;5.558;2023-04-25T05:48:08;13.30;87.60
7738;DHT22;29398;45.328;5.558;2023-04-25T05:49:30;13.20;86.50
7738;DHT22;29398;45.328;5.558;2023-04-25T05:50:47;13.20;86.30
7738;DHT22;29398;45.328;5.558;2023-04-25T05:52:08;13.20;87.00
7738;DHT22;29398;45.328;5.558;2023-04-25T05:53:17;13.20;87.50
7738;DHT22;29398;45.328;5.558;2023-04-25T05:54:20;13.30;87.10
7738;DHT22;29398;45.328;5.558;2023-04-25T05:55:22;13.40;86.50
7738;DHT22;29398;45.328;5.558;2023-04-25T05:56:23;13.30;86.30
7738;DHT22;29398;45.328;5.558;2023-04-25T05:57:27;13.30;86.60
7738;DHT22;29398;45.328;5.558;2023-04-25T05:58:30;13.40;87.20
7738;DHT22;29398;45.328;5.558;2023-04-25T05:59:34;13.40;87.20
7738;DHT22;29398;45.328;5.558;2023-04-25T06:00:36;13.40;87.00
7738;DHT22;29398;45.328;5.558;2023-04-25T06:01:39;13.40;87.00
7738;DHT22;29398;45.328;5.558;2023-04-25T06:02:41;13.50;86.70
7738;DHT22;29398;45.328;5.558;2023-04-25T06:03:44;13.50;86.70
7738;DHT22;29398;45.328;5.558;2023-04-25T06:04:46;13.40;86.10
7738;DHT22;29398;45.328;5.558;2023-04-25T06:05:47;13.50;86.40
7738;DHT22;29398;45.328;5.558;2023-04-25T06:06:49;13.50;86.30
7738;DHT22;29398;45.328;5.558;2023-04-25T06:07:50;13.50;86.50
7738;DHT22;29398;45.328;5.558;2023-04-25T06:08:55;13.50;86.50
7738;DHT22;29398;45.328;5.558;2023-04-25T06:09:57;13.50;85.90
7738;DHT22;29398;45.328;5.558;2023-04-25T06:11:01;13.60;86.40
7738;DHT22;29398;45.328;5.558;2023-04-25T06:12:02;13.60;86.30
7738;DHT22;29398;45.328;5.558;2023-04-25T06:13:05;13.70;86.60
7738;DHT22;29398;45.328;5.558;2023-04-25T06:14:08;13.60;88.20
7738;DHT22;29398;45.328;5.558;2023-04-25T06:15:15;13.60;87.80
7738;DHT22;29398;45.328;5.558;2023-04-25T06:16:16;13.60;87.20
7738;DHT22;29398;45.328;5.558;2023-04-25T06:17:18;13.60;86.90
7738;DHT22;29398;45.328;5.558;2023-04-25T06:19:22;13.60;87.10
7738;DHT22;29398;45.328;5.558;2023-04-25T06:20:23;13.60;86.90
7738;DHT22;29398;45.328;5.558;2023-04-25T06:21:26;13.60;87.80
7738;DHT22;29398;45.328;5.558;2023-04-25T06:22:28;13.60;87.90
7738;DHT22;29398;45.328;5.558;2023-04-25T06:23:31;13.60;88.10
7738;DHT22;29398;45.328;5.558;2023-04-25T06:24:37;13.60;87.20
7738;DHT22;29398;45.328;5.558;2023-04-25T06:25:41;13.70;87.40
7738;DHT22;29398;45.328;5.558;2023-04-25T06:26:42;13.70;88.10
7738;DHT22;29398;45.328;5.558;2023-04-25T06:27:44;13.60;89.20
7738;DHT22;29398;45.328;5.558;2023-04-25T06:28:47;13.60;87.90
7738;DHT22;29398;45.328;5.558;2023-04-25T06:29:49;13.60;88.40
7738;DHT22;29398;45.328;5.558;2023-04-25T06:30:50;13.50;88.10
7738;DHT22;29398;45.328;5.558;2023-04-25T06:31:54;13.60;89.00
7738;DHT22;29398;45.328;5.558;2023-04-25T06:32:56;13.60;88.50
7738;DHT22;29398;45.328;5.558;2023-04-25T06:33:58;13.60;88.80
7738;DHT22;29398;45.328;5.558;2023-04-25T06:35:02;13.70;88.70
7738;DHT22;29398;45.328;5.558;2023-04-25T06:37:08;13.70;87.60
7738;DHT22;29398;45.328;5.558;2023-04-25T06:38:10;13.80;87.40
7738;DHT22;29398;45.328;5.558;2023-04-25T06:39:14;13.90;87.80
7738;DHT22;29398;45.328;5.558;2023-04-25T06:40:15;13.90;85.50
7738;DHT22;29398;45.328;5.558;2023-04-25T06:41:19;13.90;86.50
7738;DHT22;29398;45.328;5.558;2023-04-25T06:42:22;13.80;85.90
7738;DHT22;29398;45.328;5.558;2023-04-25T06:43:32;13.80;86.50
7738;DHT22;29398;45.328;5.558;2023-04-25T06:44:50;13.80;86.90
7738;DHT22;29398;45.328;5.558;2023-04-25T06:45:53;13.90;86.30
7738;DHT22;29398;45.328;5.558;2023-04-25T06:46:56;14.00;86.30
7738;DHT22;29398;45.328;5.558;2023-04-25T06:47:58;14.00;86.30
7738;DHT22;29398;45.328;5.558;2023-04-25T06:49:00;14.10;86.10
7738;DHT22;29398;45.328;5.558;2023-04-25T06:50:02;14.10;84.60
7738;DHT22;29398;45.328;5.558;2023-04-25T06:51:12;14.10;85.70
7738;DHT22;29398;45.328;5.558;2023-04-25T06:52:15;14.10;85.40
7738;DHT22;29398;45.328;5.558;2023-04-25T06:53:18;14.20;85.20
7738;DHT22;29398;45.328;5.558;2023-04-25T06:54:25;14.10;84.50
7738;DHT22;29398;45.328;5.558;2023-04-25T06:55:35;14.10;84.90
7738;DHT22;29398;45.328;5.558;2023-04-25T06:56:48;14.10;86.10
7738;DHT22;29398;45.328;5.558;2023-04-25T06:57:50;14.10;85.60
7738;DHT22;29398;45.328;5.558;2023-04-25T06:59:17;14.20;86.10
7738;DHT22;29398;45.328;5.558;2023-04-25T07:00:21;14.20;85.20
7738;DHT22;29398;45.328;5.558;2023-04-25T07:01:22;14.30;85.20
7738;DHT22;29398;45.328;5.558;2023-04-25T07:02:24;14.30;85.10
7738;DHT22;29398;45.328;5.558;2023-04-25T07:03:27;14.30;83.30
7738;DHT22;29398;45.328;5.558;2023-04-25T07:04:35;14.30;83.20
7738;DHT22;29398;45.328;5.558;2023-04-25T07:05:37;14.30;84.80
7738;DHT22;29398;45.328;5.558;2023-04-25T07:06:39;15.20;86.00
7738;DHT22;29398;45.328;5.558;2023-04-25T07:07:43;14.40;85.00
7738;DHT22;29398;45.328;5.558;2023-04-25T07:08:46;14.40;85.00
7738;DHT22;29398;45.328;5.558;2023-04-25T07:09:47;14.50;84.70